首页
METAR-TAF:

METAR-TAF

机场 :

布拉格瓦茨拉夫·哈維爾國際機場

布拉格, 捷克共和国

纬度: 50-06N, 经度: 014-15E, 海拔: 365米

当前天气观测

该预报发布于30分钟前的20:30 UTC
风速4节,风向北转西北
温度 21°C
湿度 69%
气压 1019 hPa
能见度10公里或以上
1500米以下无云,无积雨云

METAR: LKPR 112030Z 33004KT CAVOK 21/15 Q1019 NOSIG

时间: 23:00 (21:00 UTC)

预报

该预报发布于4小时和0分钟前的17:00 UTC
预报有效从11日的 18点(UTC)到 13日的 00点(UTC)
风速6节,风向北转东北
能见度10公里或以上
1500米以下无云,无积雨云
短暂存在
从 11日的 18点(UTC)到 11日的 19点(UTC)
风速10节,风向
能見度: 7000
散云层高于4000英尺, 塔状积云.
阵雨
短暂存在
从 12日的 00点(UTC)到 12日的 06点(UTC)
能見度: 5000
轻雾
成为
从 12日的 06点(UTC)到 12日的 08点(UTC)
能见度10公里或以上
1500米以下无云,无积雨云
短暂存在
从 12日的 10点(UTC)到 12日的 16点(UTC)
风速8节,风向东南
能见度10公里或以上
散云层高于4000英尺

TAF: LKPR 111700Z 1118/1300 03006KT CAVOK TEMPO 1118/1119 08010KT 7000 SHRA SCT040TCU TEMPO 1200/1206 5000 BR NSC BECMG 1206/1208 CAVOK TEMPO 1210/1216 13008KT 9999 SCT040

超过4000个机场的气象观测和天气预报(METAR&TAF报告)。

可查询的气象台以黄色和红色小点在地图上表示。

将鼠标移到小点上方,可查看气象台名称。

然后点击查看天气观测和预报。

如需切换地图:点击带黑十字的绿色按钮放大地图;点击带横线的绿色按钮缩小地图;或者点击绿色箭头查看邻近地区的地图。


METAR-TAF: